createdAt,value
2023-04-25T00:00:53.685Z,101420.88
2023-04-25T00:03:26.548Z,101415.06
2023-04-25T00:05:58.067Z,101423.97
2023-04-25T00:08:27.724Z,101425.59
2023-04-25T00:10:56.186Z,101433.53
2023-04-25T00:13:28.839Z,101438.97
2023-04-25T00:15:59.782Z,101445.06
2023-04-25T00:18:29.954Z,101440.66
2023-04-25T00:21:01.347Z,101431.91
2023-04-25T00:23:31.129Z,101429.63
2023-04-25T00:26:00.608Z,101432.75
2023-04-25T00:28:30.140Z,101428.22
2023-04-25T00:30:58.555Z,101427.31
2023-04-25T00:33:35.112Z,101428.69
2023-04-25T00:36:18.549Z,101428.47
2023-04-25T00:38:47.090Z,101418.97
2023-04-25T00:41:15.959Z,101427.19
2023-04-25T00:43:44.826Z,101424.53
2023-04-25T00:46:15.260Z,101423.59
2023-04-25T00:48:43.936Z,101412.47
2023-04-25T00:51:19.133Z,101421.19
2023-04-25T00:53:53.001Z,101414.09
2023-04-25T00:56:34.811Z,101416.66
2023-04-25T00:59:03.162Z,101415.59
2023-04-25T01:01:33.515Z,101419.13
2023-04-25T01:04:03.830Z,101417.59
2023-04-25T01:06:35.291Z,101419.06
2023-04-25T01:09:06.201Z,101419.78
2023-04-25T01:11:39.310Z,101421.47
2023-04-25T01:14:16.738Z,101415.44
2023-04-25T01:16:48.065Z,101418.69
2023-04-25T01:19:19.912Z,101422.59
2023-04-25T01:21:54.108Z,101416.19
2023-04-25T01:24:23.573Z,101418.78
2023-04-25T01:26:58.227Z,101417.63
2023-04-25T01:29:28.539Z,101425.44
2023-04-25T01:32:01.182Z,101422.31
2023-04-25T01:34:37.229Z,101413.91
2023-04-25T01:37:10.352Z,101413.66
2023-04-25T01:39:38.974Z,101412.91
2023-04-25T01:42:09.701Z,101422.78
2023-04-25T01:44:40.752Z,101422.88
2023-04-25T01:47:19.235Z,101418.00
2023-04-25T01:49:48.854Z,101426.38
2023-04-25T01:52:19.000Z,101425.91
2023-04-25T01:54:49.119Z,101426.34
2023-04-25T01:57:18.247Z,101423.63
2023-04-25T01:59:47.056Z,101425.13
2023-04-25T02:02:15.690Z,101418.13
2023-04-25T02:04:46.148Z,101413.72
2023-04-25T02:07:17.020Z,101422.44
2023-04-25T02:09:47.237Z,101424.22
2023-04-25T02:12:15.690Z,101428.41
2023-04-25T02:14:44.246Z,101421.31
2023-04-25T02:17:13.811Z,101429.13
2023-04-25T02:19:44.486Z,101417.94
2023-04-25T02:22:18.719Z,101419.78
2023-04-25T02:24:50.802Z,101413.16
2023-04-25T02:27:21.242Z,101413.19
2023-04-25T02:29:51.963Z,101412.72
2023-04-25T02:32:20.619Z,101410.38
2023-04-25T02:34:59.678Z,101414.94
2023-04-25T02:37:28.122Z,101418.28
2023-04-25T02:40:05.556Z,101431.91
2023-04-25T02:42:33.993Z,101431.50
2023-04-25T02:45:03.830Z,101440.94
2023-04-25T02:47:32.772Z,101442.03
2023-04-25T02:50:03.291Z,101442.13
2023-04-25T02:52:34.659Z,101443.56
2023-04-25T02:55:08.294Z,101443.31
2023-04-25T02:57:36.777Z,101451.72
2023-04-25T03:00:07.014Z,101438.22
2023-04-25T03:02:36.586Z,101441.44
2023-04-25T03:05:06.000Z,101437.84
2023-04-25T03:07:34.510Z,101435.91
2023-04-25T03:10:09.996Z,101435.94
2023-04-25T03:12:43.327Z,101430.63
2023-04-25T03:15:12.436Z,101426.16
2023-04-25T03:17:41.613Z,101419.97
2023-04-25T03:20:11.961Z,101414.63
2023-04-25T03:22:40.900Z,101415.34
2023-04-25T03:25:13.188Z,101424.78
2023-04-25T03:27:47.788Z,101424.59
2023-04-25T03:30:17.449Z,101422.13
2023-04-25T03:32:48.303Z,101416.25
2023-04-25T03:35:16.997Z,101426.97
2023-04-25T03:37:51.596Z,101430.44
2023-04-25T03:40:21.615Z,101432.94
2023-04-25T03:42:50.161Z,101428.66
2023-04-25T03:45:18.815Z,101429.50
2023-04-25T03:47:53.542Z,101431.28
2023-04-25T03:50:28.131Z,101421.81
2023-04-25T03:52:58.717Z,101423.94
2023-04-25T03:55:29.592Z,101430.97
2023-04-25T03:58:00.203Z,101431.97
2023-04-25T04:00:29.966Z,101437.31
2023-04-25T04:02:59.549Z,101448.66
2023-04-25T04:05:30.749Z,101451.84
2023-04-25T04:07:59.214Z,101446.53
2023-04-25T04:10:35.989Z,101434.25
2023-04-25T04:13:04.316Z,101436.69
2023-04-25T04:15:34.490Z,101439.78
2023-04-25T04:18:04.720Z,101442.72
2023-04-25T04:20:35.639Z,101438.81
2023-04-25T04:23:04.383Z,101443.56
2023-04-25T04:25:40.937Z,101443.25
2023-04-25T04:28:12.431Z,101450.06
2023-04-25T04:30:42.373Z,101444.66
2023-04-25T04:33:14.429Z,101445.47
2023-04-25T04:35:44.225Z,101448.06
2023-04-25T04:38:13.893Z,101445.88
2023-04-25T04:40:44.155Z,101448.72
2023-04-25T04:43:13.690Z,101453.38
2023-04-25T04:45:42.475Z,101451.69
2023-04-25T04:48:15.385Z,101457.13
2023-04-25T04:50:46.455Z,101461.72
2023-04-25T04:53:21.437Z,101466.78
2023-04-25T04:55:51.520Z,101461.34
2023-04-25T04:58:21.195Z,101463.19
2023-04-25T05:00:49.980Z,101465.72
2023-04-25T05:03:19.607Z,101463.06
2023-04-25T05:05:49.511Z,101469.00
2023-04-25T05:08:20.942Z,101470.59
2023-04-25T05:10:50.869Z,101471.50
2023-04-25T05:13:20.336Z,101470.00
2023-04-25T05:15:48.729Z,101476.00
2023-04-25T05:18:31.201Z,101477.53
2023-04-25T05:20:59.693Z,101476.38
2023-04-25T05:23:33.257Z,101479.94
2023-04-25T05:26:14.941Z,101482.50
2023-04-25T05:28:44.469Z,101477.25
2023-04-25T05:31:15.067Z,101479.84
2023-04-25T05:33:43.475Z,101482.69
2023-04-25T05:36:12.226Z,101479.16
2023-04-25T05:38:46.219Z,101473.78
2023-04-25T05:41:17.618Z,101487.47
2023-04-25T05:43:50.190Z,101477.19
2023-04-25T05:46:19.336Z,101485.22
2023-04-25T05:48:49.385Z,101493.13
2023-04-25T05:51:19.600Z,101493.19
2023-04-25T05:53:48.157Z,101484.22
2023-04-25T05:56:18.281Z,101483.00
2023-04-25T05:58:46.560Z,101486.25
2023-04-25T06:01:15.730Z,101490.63
2023-04-25T06:03:45.452Z,101487.81
2023-04-25T06:06:15.153Z,101483.34
2023-04-25T06:08:46.056Z,101491.16
2023-04-25T06:11:14.802Z,101490.09
2023-04-25T06:13:44.827Z,101485.47
2023-04-25T06:16:13.504Z,101495.00
2023-04-25T06:18:42.107Z,101487.19
2023-04-25T06:21:10.588Z,101489.53
2023-04-25T06:23:39.858Z,101485.13
2023-04-25T06:26:08.795Z,101488.91
2023-04-25T06:28:37.416Z,101484.47
2023-04-25T06:31:07.440Z,101483.56
2023-04-25T06:33:35.774Z,101490.13
2023-04-25T06:36:05.684Z,101493.69
2023-04-25T06:38:36.224Z,101505.00
2023-04-25T06:41:04.986Z,101505.66
2023-04-25T06:43:34.687Z,101503.72
2023-04-25T06:46:03.467Z,101493.19
2023-04-25T06:48:33.348Z,101497.25
2023-04-25T06:51:01.862Z,101491.63
2023-04-25T06:53:31.373Z,101494.66
2023-04-25T06:55:59.754Z,101490.66
2023-04-25T06:58:28.734Z,101490.66
2023-04-25T07:00:57.688Z,101483.44
2023-04-25T07:03:26.779Z,101482.84
2023-04-25T07:05:56.796Z,101480.56
2023-04-25T07:08:25.354Z,101479.88
2023-04-25T07:10:54.000Z,101478.75
2023-04-25T07:13:22.661Z,101481.06
2023-04-25T07:15:51.260Z,101479.91
2023-04-25T07:18:19.816Z,101479.63
2023-04-25T07:20:48.583Z,101476.66
2023-04-25T07:23:19.247Z,101475.44
2023-04-25T07:25:48.056Z,101468.25
2023-04-25T07:28:18.827Z,101481.84
2023-04-25T07:30:47.825Z,101471.50
2023-04-25T07:33:16.481Z,101469.41
2023-04-25T07:35:44.874Z,101466.59
2023-04-25T07:38:13.393Z,101474.28
2023-04-25T07:40:43.454Z,101465.63
2023-04-25T07:43:13.451Z,101462.56
2023-04-25T07:45:43.987Z,101463.53
2023-04-25T07:48:12.785Z,101463.13
2023-04-25T07:50:41.537Z,101461.03
2023-04-25T07:53:09.909Z,101467.84
2023-04-25T07:55:41.592Z,101468.09
2023-04-25T07:58:12.549Z,101468.25
2023-04-25T08:00:40.980Z,101471.72
2023-04-25T08:03:10.132Z,101475.94
2023-04-25T08:05:39.165Z,101475.06
2023-04-25T08:08:08.692Z,101478.31
2023-04-25T08:10:37.412Z,101474.59
2023-04-25T08:13:06.005Z,101472.50
2023-04-25T08:15:36.295Z,101468.81
2023-04-25T08:18:04.921Z,101473.84
2023-04-25T08:20:33.393Z,101473.56
2023-04-25T08:23:01.857Z,101477.66
2023-04-25T08:25:31.532Z,101474.91
2023-04-25T08:28:01.236Z,101472.91
2023-04-25T08:30:29.547Z,101475.69
2023-04-25T08:32:59.833Z,101479.94
2023-04-25T08:35:30.853Z,101476.69
2023-04-25T08:37:59.654Z,101485.06
2023-04-25T08:40:31.571Z,101481.06
2023-04-25T08:43:01.214Z,101489.75
2023-04-25T08:45:33.430Z,101484.63
2023-04-25T08:48:05.346Z,101479.25
2023-04-25T08:50:33.983Z,101480.09
2023-04-25T08:53:07.766Z,101481.78
2023-04-25T08:55:36.855Z,101474.94
2023-04-25T08:58:06.861Z,101474.78
2023-04-25T09:00:35.652Z,101473.19
2023-04-25T09:03:06.767Z,101469.97
2023-04-25T09:05:36.635Z,101457.97
2023-04-25T09:08:05.211Z,101455.63
2023-04-25T09:10:33.805Z,101449.13
2023-04-25T09:13:06.965Z,101450.47
2023-04-25T09:15:35.548Z,101452.41
2023-04-25T09:18:06.320Z,101445.97
2023-04-25T09:20:56.379Z,101450.88
2023-04-25T09:23:29.692Z,101452.63
2023-04-25T09:25:58.484Z,101444.22
2023-04-25T09:28:30.900Z,101450.03
2023-04-25T09:31:00.179Z,101448.97
2023-04-25T09:33:34.707Z,101432.53
2023-04-25T09:36:05.934Z,101424.94
2023-04-25T09:38:42.480Z,101425.06
2023-04-25T09:41:12.406Z,101427.22
2023-04-25T09:43:41.987Z,101417.06
2023-04-25T09:46:12.536Z,101427.97
2023-04-25T09:48:42.985Z,101424.59
2023-04-25T09:51:12.837Z,101427.13
2023-04-25T09:53:43.640Z,101427.13
2023-04-25T09:56:14.140Z,101423.81
2023-04-25T09:58:43.918Z,101418.53
2023-04-25T10:01:14.055Z,101430.47
2023-04-25T10:03:45.879Z,101430.31
2023-04-25T10:06:23.005Z,101432.91
2023-04-25T10:08:56.996Z,101437.91
2023-04-25T10:11:28.360Z,101437.94
2023-04-25T10:13:59.081Z,101437.19
2023-04-25T10:16:28.033Z,101441.91
2023-04-25T10:18:59.098Z,101427.19
2023-04-25T10:21:32.007Z,101425.13
2023-04-25T10:24:00.710Z,101435.50
2023-04-25T10:26:31.305Z,101437.38
2023-04-25T10:29:01.263Z,101433.44
2023-04-25T10:31:30.089Z,101427.75
2023-04-25T10:34:02.125Z,101424.88
2023-04-25T10:36:34.478Z,101422.41
2023-04-25T10:39:10.673Z,101420.53
2023-04-25T10:41:50.125Z,101430.31
2023-04-25T10:44:18.953Z,101424.31
2023-04-25T10:46:48.274Z,101428.34
2023-04-25T10:49:34.955Z,101430.69
2023-04-25T10:52:27.830Z,101424.09
2023-04-25T10:54:58.266Z,101425.53
2023-04-25T10:57:39.170Z,101426.00
2023-04-25T11:00:12.206Z,101421.31
2023-04-25T11:02:44.426Z,101418.34
2023-04-25T11:05:22.851Z,101410.16
2023-04-25T11:08:07.059Z,101413.03
2023-04-25T11:10:38.344Z,101407.41
2023-04-25T11:13:06.923Z,101411.72
2023-04-25T11:15:35.330Z,101404.94
2023-04-25T11:18:04.357Z,101404.94
2023-04-25T11:20:34.870Z,101400.16
2023-04-25T11:25:33.713Z,101397.25
2023-04-25T11:28:04.203Z,101401.72
2023-04-25T11:30:32.784Z,101405.91
2023-04-25T11:33:04.541Z,101404.81
2023-04-25T11:35:35.131Z,101405.66
2023-04-25T11:38:04.145Z,101394.69
2023-04-25T11:40:33.885Z,101394.41
2023-04-25T11:43:03.546Z,101387.91
2023-04-25T11:45:32.480Z,101386.06
2023-04-25T11:48:01.404Z,101392.28
2023-04-25T11:50:30.990Z,101387.50
2023-04-25T11:53:01.367Z,101391.72
2023-04-25T11:55:33.754Z,101385.69
2023-04-25T11:58:03.701Z,101384.13
2023-04-25T12:00:33.148Z,101393.22
2023-04-25T12:03:01.784Z,101386.38
2023-04-25T12:05:35.159Z,101392.78
2023-04-25T12:08:16.985Z,101392.28
2023-04-25T12:10:46.493Z,101385.47
2023-04-25T12:13:23.595Z,101389.19
2023-04-25T12:15:52.750Z,101380.97
2023-04-25T12:18:28.905Z,101385.09
2023-04-25T12:20:57.485Z,101388.34
2023-04-25T12:23:31.647Z,101394.63
2023-04-25T12:26:00.380Z,101387.06
2023-04-25T12:28:29.774Z,101382.00
2023-04-25T12:31:00.375Z,101385.91
2023-04-25T12:33:30.318Z,101386.66
2023-04-25T12:36:00.204Z,101389.47
2023-04-25T12:38:32.082Z,101385.56
2023-04-25T12:41:01.136Z,101382.69
2023-04-25T12:43:30.387Z,101380.31
2023-04-25T12:45:59.392Z,101381.97
2023-04-25T12:48:27.800Z,101370.78
2023-04-25T12:50:56.136Z,101380.75
2023-04-25T12:53:26.119Z,101376.94
2023-04-25T12:55:57.190Z,101383.56
2023-04-25T12:58:26.619Z,101389.00
2023-04-25T13:00:55.319Z,101390.06
2023-04-25T13:03:24.771Z,101383.56
2023-04-25T13:05:54.063Z,101380.94
2023-04-25T13:08:22.381Z,101382.09
2023-04-25T13:10:51.068Z,101374.69
2023-04-25T13:13:21.557Z,101368.44
2023-04-25T13:15:50.539Z,101371.63
2023-04-25T13:18:20.238Z,101371.22
2023-04-25T13:20:49.008Z,101364.78
2023-04-25T13:23:17.754Z,101367.41
2023-04-25T13:25:46.169Z,101365.25
2023-04-25T13:28:15.193Z,101364.19
2023-04-25T13:30:46.750Z,101361.44
2023-04-25T13:33:18.058Z,101360.22
2023-04-25T13:35:48.034Z,101367.91
2023-04-25T13:38:16.844Z,101362.66
2023-04-25T13:40:48.908Z,101374.28
2023-04-25T13:43:23.388Z,101361.13
2023-04-25T13:45:53.920Z,101355.09
2023-04-25T13:48:23.835Z,101359.75
2023-04-25T13:50:52.673Z,101355.19
2023-04-25T13:53:21.233Z,101352.16
2023-04-25T13:55:51.671Z,101349.28
2023-04-25T13:58:21.873Z,101345.78
2023-04-25T14:00:50.231Z,101344.94
2023-04-25T14:03:20.477Z,101339.91
2023-04-25T14:05:49.160Z,101348.59
2023-04-25T14:08:17.703Z,101349.63
2023-04-25T14:10:46.256Z,101351.66
2023-04-25T14:13:15.137Z,101341.47
2023-04-25T14:15:43.569Z,101339.03
2023-04-25T14:18:12.231Z,101340.78
2023-04-25T14:20:42.372Z,101336.53
2023-04-25T14:23:11.012Z,101335.59
2023-04-25T14:25:39.863Z,101333.22
2023-04-25T14:28:08.347Z,101333.03
2023-04-25T14:30:37.499Z,101330.41
2023-04-25T14:33:06.716Z,101329.47
2023-04-25T14:35:35.470Z,101331.16
2023-04-25T14:38:06.828Z,101330.09
2023-04-25T14:40:35.161Z,101343.09
2023-04-25T14:43:03.841Z,101336.72
2023-04-25T14:45:32.812Z,101327.78
2023-04-25T14:48:01.714Z,101328.19
2023-04-25T14:50:30.251Z,101326.00
2023-04-25T14:53:02.035Z,101327.72
2023-04-25T14:55:32.379Z,101327.53
2023-04-25T14:58:01.076Z,101320.75
2023-04-25T15:00:29.585Z,101318.97
2023-04-25T15:02:58.924Z,101321.63
2023-04-25T15:05:27.794Z,101327.94
2023-04-25T15:07:56.659Z,101325.53
2023-04-25T15:10:26.439Z,101321.53
2023-04-25T15:12:56.722Z,101326.38
2023-04-25T15:15:26.894Z,101324.16
2023-04-25T15:17:59.071Z,101319.72
2023-04-25T15:20:29.157Z,101320.72
2023-04-25T15:22:58.446Z,101324.22
2023-04-25T15:25:27.446Z,101312.63
2023-04-25T15:27:58.773Z,101311.41
2023-04-25T15:30:27.272Z,101317.06
2023-04-25T15:32:56.670Z,101318.53
2023-04-25T15:35:25.412Z,101312.06
2023-04-25T15:37:54.005Z,101317.41
2023-04-25T15:40:22.814Z,101318.63
2023-04-25T15:42:52.989Z,101326.50
2023-04-25T15:45:26.332Z,101312.91
2023-04-25T15:47:57.634Z,101312.19
2023-04-25T15:50:26.343Z,101316.00
2023-04-25T15:52:55.971Z,101310.09
2023-04-25T15:55:27.221Z,101306.44
2023-04-25T15:57:56.052Z,101310.09
2023-04-25T16:00:26.984Z,101307.47
2023-04-25T16:02:55.813Z,101304.22
2023-04-25T16:05:24.785Z,101310.81
2023-04-25T16:07:54.455Z,101302.75
2023-04-25T16:10:23.111Z,101300.63
2023-04-25T16:12:51.999Z,101308.53
2023-04-25T16:15:20.694Z,101305.88
2023-04-25T16:17:51.241Z,101306.75
2023-04-25T16:20:20.866Z,101301.09
2023-04-25T16:22:49.428Z,101305.97
2023-04-25T16:25:18.258Z,101300.09
2023-04-25T16:27:47.455Z,101292.69
2023-04-25T16:30:16.112Z,101298.94
2023-04-25T16:32:45.616Z,101290.75
2023-04-25T16:35:15.824Z,101295.16
2023-04-25T16:37:45.000Z,101284.34
2023-04-25T16:40:14.097Z,101281.69
2023-04-25T16:42:42.948Z,101287.38
2023-04-25T16:45:17.903Z,101287.53
2023-04-25T16:47:46.675Z,101296.78
2023-04-25T16:50:17.352Z,101291.94
2023-04-25T16:52:45.902Z,101287.16
2023-04-25T16:55:31.221Z,101289.84
2023-04-25T16:58:03.592Z,101275.94
2023-04-25T17:00:42.045Z,101287.44
2023-04-25T17:03:18.941Z,101286.91
2023-04-25T17:05:52.322Z,101289.00
2023-04-25T17:08:25.691Z,101282.63
2023-04-25T17:10:54.070Z,101287.22
2023-04-25T17:13:31.029Z,101291.25
2023-04-25T17:16:01.026Z,101287.13
2023-04-25T17:18:29.742Z,101296.34
2023-04-25T17:21:00.708Z,101296.38
2023-04-25T17:23:31.807Z,101303.13
2023-04-25T17:26:01.663Z,101308.91
2023-04-25T17:28:30.290Z,101294.81
2023-04-25T17:30:58.819Z,101299.97
2023-04-25T17:33:27.989Z,101298.34
2023-04-25T17:35:57.196Z,101299.66
2023-04-25T17:38:28.161Z,101302.44
2023-04-25T17:40:56.804Z,101304.41
2023-04-25T17:43:25.315Z,101298.19
2023-04-25T17:45:53.994Z,101295.53
2023-04-25T17:48:23.759Z,101301.84
2023-04-25T17:50:52.872Z,101296.94
2023-04-25T17:53:22.583Z,101302.59
2023-04-25T17:55:52.605Z,101299.94
2023-04-25T17:58:22.470Z,101307.03
2023-04-25T18:00:50.966Z,101303.75
2023-04-25T18:03:23.629Z,101302.81
2023-04-25T18:05:54.941Z,101300.16
2023-04-25T18:08:24.909Z,101298.22
2023-04-25T18:10:54.824Z,101296.41
2023-04-25T18:13:24.612Z,101299.34
2023-04-25T18:15:53.329Z,101295.91
2023-04-25T18:18:25.833Z,101299.44
2023-04-25T18:20:56.087Z,101308.34
2023-04-25T18:23:26.520Z,101316.09
2023-04-25T18:25:56.579Z,101307.97
2023-04-25T18:28:26.116Z,101315.69
2023-04-25T18:30:59.020Z,101310.88
2023-04-25T18:33:36.816Z,101313.91
2023-04-25T18:36:10.410Z,101323.88
2023-04-25T18:38:38.696Z,101313.19
2023-04-25T18:41:47.932Z,101321.72
2023-04-25T18:44:09.552Z,101316.66
2023-04-25T18:46:43.699Z,101316.28
2023-04-25T18:49:12.437Z,101309.19
2023-04-25T18:51:41.888Z,101309.00
2023-04-25T18:54:12.137Z,101319.06
2023-04-25T18:56:44.360Z,101317.66
2023-04-25T18:59:12.714Z,101317.19
2023-04-25T19:01:42.309Z,101313.38
2023-04-25T19:04:11.430Z,101311.06
2023-04-25T19:06:42.673Z,101315.41
2023-04-25T19:09:11.337Z,101309.84
2023-04-25T19:11:40.189Z,101310.03
2023-04-25T19:14:10.415Z,101309.75
2023-04-25T19:16:40.167Z,101308.25
2023-04-25T19:19:13.311Z,101304.47
2023-04-25T19:21:50.726Z,101295.63
2023-04-25T19:24:24.370Z,101298.47
2023-04-25T19:26:52.901Z,101302.50
2023-04-25T19:29:30.346Z,101301.31
2023-04-25T19:32:00.043Z,101307.56
2023-04-25T19:34:29.627Z,101306.50
2023-04-25T19:36:58.146Z,101304.13
2023-04-25T19:39:26.554Z,101315.63
2023-04-25T19:41:56.999Z,101315.53
2023-04-25T19:44:26.135Z,101318.94
2023-04-25T19:46:56.493Z,101320.81
2023-04-25T19:49:28.373Z,101325.28
2023-04-25T19:51:58.908Z,101321.78
2023-04-25T19:54:34.487Z,101326.69
2023-04-25T19:57:06.925Z,101326.41
2023-04-25T19:59:36.222Z,101321.88
2023-04-25T20:02:11.465Z,101324.09
2023-04-25T20:04:42.575Z,101329.25
2023-04-25T20:07:12.027Z,101325.38
2023-04-25T20:09:40.598Z,101328.53
2023-04-25T20:12:12.089Z,101333.16
2023-04-25T20:14:46.662Z,101328.78
2023-04-25T20:17:17.651Z,101317.25
2023-04-25T20:19:48.304Z,101319.59
2023-04-25T20:22:17.952Z,101316.41
2023-04-25T20:24:50.382Z,101327.78
2023-04-25T20:27:27.067Z,101321.94
2023-04-25T20:30:04.428Z,101324.13
2023-04-25T20:32:34.872Z,101326.47
2023-04-25T20:35:06.601Z,101323.16
2023-04-25T20:37:37.217Z,101317.84
2023-04-25T20:40:09.062Z,101322.06
2023-04-25T20:42:39.099Z,101324.72
2023-04-25T20:45:13.638Z,101324.38
2023-04-25T20:47:44.888Z,101323.56
2023-04-25T20:50:15.372Z,101321.22
2023-04-25T20:52:44.574Z,101323.03
2023-04-25T20:55:19.167Z,101323.44
2023-04-25T20:58:03.582Z,101321.66
2023-04-25T21:00:41.288Z,101323.19
2023-04-25T21:03:21.668Z,101325.56
2023-04-25T21:05:50.749Z,101327.94
2023-04-25T21:08:19.379Z,101321.88
2023-04-25T21:10:47.788Z,101323.69
2023-04-25T21:13:19.224Z,101313.50
2023-04-25T21:15:47.795Z,101315.72
2023-04-25T21:18:17.951Z,101316.22
2023-04-25T21:20:47.880Z,101314.19
2023-04-25T21:23:22.443Z,101314.38
2023-04-25T21:25:55.150Z,101318.59
2023-04-25T21:28:23.940Z,101328.13
2023-04-25T21:30:52.663Z,101338.66
2023-04-25T21:33:25.520Z,101336.19
2023-04-25T21:36:02.253Z,101338.22
2023-04-25T21:38:30.828Z,101333.75
2023-04-25T21:41:02.351Z,101322.78
2023-04-25T21:43:35.661Z,101324.72
2023-04-25T21:48:37.665Z,101329.31
2023-04-25T21:51:12.779Z,101330.75
2023-04-25T21:53:42.657Z,101325.31
2023-04-25T21:56:11.501Z,101326.19
2023-04-25T21:58:39.991Z,101323.88
2023-04-25T22:01:08.925Z,101332.53
2023-04-25T22:03:39.907Z,101326.63
2023-04-25T22:06:10.971Z,101331.97
2023-04-25T22:08:39.714Z,101334.66
2023-04-25T22:11:09.219Z,101325.91
2023-04-25T22:13:39.129Z,101332.53
2023-04-25T22:16:17.523Z,101328.22
2023-04-25T22:18:48.758Z,101328.13
2023-04-25T22:21:19.795Z,101327.13
2023-04-25T22:23:48.417Z,101323.63
2023-04-25T22:26:18.150Z,101330.88
2023-04-25T22:28:46.594Z,101322.88
2023-04-25T22:31:17.746Z,101316.59
2023-04-25T22:33:54.913Z,101323.31
2023-04-25T22:36:29.757Z,101322.63
2023-04-25T22:38:58.394Z,101323.06
2023-04-25T22:41:28.100Z,101324.16
2023-04-25T22:44:04.294Z,101321.00
2023-04-25T22:46:39.864Z,101320.50
2023-04-25T22:49:13.990Z,101321.38
2023-04-25T22:51:44.567Z,101323.22
2023-04-25T22:54:15.210Z,101325.09
2023-04-25T22:56:44.515Z,101322.53
2023-04-25T22:59:18.269Z,101319.31
2023-04-25T23:01:46.938Z,101322.13
2023-04-25T23:04:18.973Z,101308.97
2023-04-25T23:06:48.038Z,101308.38
2023-04-25T23:09:17.561Z,101306.47
2023-04-25T23:11:46.169Z,101308.00
2023-04-25T23:14:15.806Z,101307.28
2023-04-25T23:16:45.670Z,101305.56
2023-04-25T23:19:21.767Z,101310.22
2023-04-25T23:21:52.180Z,101312.84
2023-04-25T23:24:23.394Z,101317.38
2023-04-25T23:26:52.398Z,101317.09
2023-04-25T23:29:21.203Z,101319.63
2023-04-25T23:31:55.643Z,101321.53
2023-04-25T23:34:25.632Z,101313.97
2023-04-25T23:36:56.038Z,101318.03
2023-04-25T23:39:27.781Z,101319.56
2023-04-25T23:41:56.476Z,101321.69
2023-04-25T23:44:25.685Z,101318.13
2023-04-25T23:47:01.875Z,101316.16
2023-04-25T23:49:34.855Z,101313.47
2023-04-25T23:52:05.326Z,101319.00
2023-04-25T23:54:42.163Z,101313.38
2023-04-25T23:57:12.353Z,101315.94
2023-04-25T23:59:41.343Z,101310.81
